sensor_id;sensor_type;location;lat;lon;timestamp;P1;durP1;ratioP1;P2;durP2;ratioP2
7607;SDS011;3845;48.120;11.534;2023-05-07T00:01:28;4.87;;;4.40;;
7607;SDS011;3845;48.120;11.534;2023-05-07T00:03:54;4.90;;;4.40;;
7607;SDS011;3845;48.120;11.534;2023-05-07T00:06:19;4.87;;;4.37;;
7607;SDS011;3845;48.120;11.534;2023-05-07T00:08:45;5.10;;;4.20;;
7607;SDS011;3845;48.120;11.534;2023-05-07T00:11:10;4.77;;;4.00;;
7607;SDS011;3845;48.120;11.534;2023-05-07T00:13:35;4.80;;;4.30;;
7607;SDS011;3845;48.120;11.534;2023-05-07T00:16:03;4.60;;;4.10;;
7607;SDS011;3845;48.120;11.534;2023-05-07T00:18:29;5.53;;;4.17;;
7607;SDS011;3845;48.120;11.534;2023-05-07T00:20:55;4.33;;;3.90;;
7607;SDS011;3845;48.120;11.534;2023-05-07T00:23:21;3.80;;;3.50;;
7607;SDS011;3845;48.120;11.534;2023-05-07T00:25:46;4.60;;;4.10;;
7607;SDS011;3845;48.120;11.534;2023-05-07T00:28:12;4.50;;;3.87;;
7607;SDS011;3845;48.120;11.534;2023-05-07T00:30:37;5.30;;;4.00;;
7607;SDS011;3845;48.120;11.534;2023-05-07T00:33:02;5.23;;;4.07;;
7607;SDS011;3845;48.120;11.534;2023-05-07T00:35:28;4.00;;;3.60;;
7607;SDS011;3845;48.120;11.534;2023-05-07T00:37:54;4.20;;;3.80;;
7607;SDS011;3845;48.120;11.534;2023-05-07T00:40:20;3.90;;;3.60;;
7607;SDS011;3845;48.120;11.534;2023-05-07T00:42:45;4.17;;;3.70;;
7607;SDS011;3845;48.120;11.534;2023-05-07T00:45:12;4.03;;;3.63;;
7607;SDS011;3845;48.120;11.534;2023-05-07T00:47:38;4.00;;;3.60;;
7607;SDS011;3845;48.120;11.534;2023-05-07T00:50:04;4.30;;;3.80;;
7607;SDS011;3845;48.120;11.534;2023-05-07T00:52:30;4.10;;;3.70;;
7607;SDS011;3845;48.120;11.534;2023-05-07T00:54:55;3.90;;;3.47;;
7607;SDS011;3845;48.120;11.534;2023-05-07T00:57:21;4.23;;;3.37;;
7607;SDS011;3845;48.120;11.534;2023-05-07T00:59:47;3.90;;;3.50;;
7607;SDS011;3845;48.120;11.534;2023-05-07T01:02:12;4.03;;;3.63;;
7607;SDS011;3845;48.120;11.534;2023-05-07T01:04:37;4.10;;;3.70;;
7607;SDS011;3845;48.120;11.534;2023-05-07T01:07:03;3.80;;;3.47;;
7607;SDS011;3845;48.120;11.534;2023-05-07T01:09:28;4.37;;;3.53;;
7607;SDS011;3845;48.120;11.534;2023-05-07T01:11:54;4.33;;;3.67;;
7607;SDS011;3845;48.120;11.534;2023-05-07T01:14:20;3.93;;;3.47;;
7607;SDS011;3845;48.120;11.534;2023-05-07T01:16:46;4.40;;;3.67;;
7607;SDS011;3845;48.120;11.534;2023-05-07T01:19:12;4.33;;;3.50;;
7607;SDS011;3845;48.120;11.534;2023-05-07T01:21:39;3.73;;;3.43;;
7607;SDS011;3845;48.120;11.534;2023-05-07T01:24:12;4.53;;;3.73;;
7607;SDS011;3845;48.120;11.534;2023-05-07T01:26:39;6.27;;;3.87;;
7607;SDS011;3845;48.120;11.534;2023-05-07T01:29:04;3.60;;;3.30;;
7607;SDS011;3845;48.120;11.534;2023-05-07T01:31:30;4.10;;;3.60;;
7607;SDS011;3845;48.120;11.534;2023-05-07T01:33:56;4.50;;;4.03;;
7607;SDS011;3845;48.120;11.534;2023-05-07T01:36:23;4.67;;;4.27;;
7607;SDS011;3845;48.120;11.534;2023-05-07T01:38:51;4.60;;;4.20;;
7607;SDS011;3845;48.120;11.534;2023-05-07T01:41:16;4.87;;;4.37;;
7607;SDS011;3845;48.120;11.534;2023-05-07T01:43:42;4.37;;;3.97;;
7607;SDS011;3845;48.120;11.534;2023-05-07T01:46:07;4.47;;;4.07;;
7607;SDS011;3845;48.120;11.534;2023-05-07T01:48:34;4.37;;;3.97;;
7607;SDS011;3845;48.120;11.534;2023-05-07T01:51:00;4.23;;;3.50;;
7607;SDS011;3845;48.120;11.534;2023-05-07T01:53:27;5.23;;;3.90;;
7607;SDS011;3845;48.120;11.534;2023-05-07T01:55:53;4.63;;;4.13;;
7607;SDS011;3845;48.120;11.534;2023-05-07T01:58:18;5.17;;;4.30;;
7607;SDS011;3845;48.120;11.534;2023-05-07T02:00:43;5.37;;;3.60;;
7607;SDS011;3845;48.120;11.534;2023-05-07T02:03:09;5.10;;;3.80;;
7607;SDS011;3845;48.120;11.534;2023-05-07T02:05:34;4.13;;;3.73;;
7607;SDS011;3845;48.120;11.534;2023-05-07T02:07:59;4.17;;;3.77;;
7607;SDS011;3845;48.120;11.534;2023-05-07T02:10:25;3.90;;;3.60;;
7607;SDS011;3845;48.120;11.534;2023-05-07T02:12:50;3.80;;;3.50;;
7607;SDS011;3845;48.120;11.534;2023-05-07T02:15:15;4.07;;;3.37;;
7607;SDS011;3845;48.120;11.534;2023-05-07T02:20:25;4.23;;;3.60;;
7607;SDS011;3845;48.120;11.534;2023-05-07T02:22:51;5.70;;;3.73;;
7607;SDS011;3845;48.120;11.534;2023-05-07T02:25:17;3.80;;;3.40;;
7607;SDS011;3845;48.120;11.534;2023-05-07T02:27:42;3.80;;;3.47;;
7607;SDS011;3845;48.120;11.534;2023-05-07T02:30:07;5.80;;;3.67;;
7607;SDS011;3845;48.120;11.534;2023-05-07T02:32:33;3.60;;;3.30;;
7607;SDS011;3845;48.120;11.534;2023-05-07T02:34:58;3.50;;;3.20;;
7607;SDS011;3845;48.120;11.534;2023-05-07T02:37:24;3.97;;;3.57;;
7607;SDS011;3845;48.120;11.534;2023-05-07T02:39:49;3.47;;;3.17;;
7607;SDS011;3845;48.120;11.534;2023-05-07T02:42:15;3.63;;;3.30;;
7607;SDS011;3845;48.120;11.534;2023-05-07T02:44:40;3.40;;;3.10;;
7607;SDS011;3845;48.120;11.534;2023-05-07T02:47:05;4.07;;;3.13;;
7607;SDS011;3845;48.120;11.534;2023-05-07T02:49:33;4.20;;;3.53;;
7607;SDS011;3845;48.120;11.534;2023-05-07T02:51:58;3.30;;;3.00;;
7607;SDS011;3845;48.120;11.534;2023-05-07T02:54:23;3.50;;;3.20;;
7607;SDS011;3845;48.120;11.534;2023-05-07T02:56:49;3.40;;;3.10;;
7607;SDS011;3845;48.120;11.534;2023-05-07T02:59:14;3.30;;;3.00;;
7607;SDS011;3845;48.120;11.534;2023-05-07T03:01:40;4.30;;;3.30;;
7607;SDS011;3845;48.120;11.534;2023-05-07T03:04:06;3.40;;;3.10;;
7607;SDS011;3845;48.120;11.534;2023-05-07T03:06:31;3.30;;;3.00;;
7607;SDS011;3845;48.120;11.534;2023-05-07T03:08:57;4.17;;;3.03;;
7607;SDS011;3845;48.120;11.534;2023-05-07T03:11:22;3.30;;;3.00;;
7607;SDS011;3845;48.120;11.534;2023-05-07T03:13:47;3.30;;;3.00;;
7607;SDS011;3845;48.120;11.534;2023-05-07T03:16:14;3.30;;;2.90;;
7607;SDS011;3845;48.120;11.534;2023-05-07T03:18:40;3.17;;;2.87;;
7607;SDS011;3845;48.120;11.534;2023-05-07T03:21:05;3.33;;;2.90;;
7607;SDS011;3845;48.120;11.534;2023-05-07T03:23:30;2.90;;;2.70;;
7607;SDS011;3845;48.120;11.534;2023-05-07T03:25:56;3.30;;;3.00;;
7607;SDS011;3845;48.120;11.534;2023-05-07T03:28:21;3.50;;;3.20;;
7607;SDS011;3845;48.120;11.534;2023-05-07T03:30:46;3.30;;;2.90;;
7607;SDS011;3845;48.120;11.534;2023-05-07T03:33:12;2.90;;;2.67;;
7607;SDS011;3845;48.120;11.534;2023-05-07T03:35:37;3.33;;;3.03;;
7607;SDS011;3845;48.120;11.534;2023-05-07T03:38:02;3.30;;;2.93;;
7607;SDS011;3845;48.120;11.534;2023-05-07T03:40:28;3.20;;;2.90;;
7607;SDS011;3845;48.120;11.534;2023-05-07T03:42:53;3.20;;;2.90;;
7607;SDS011;3845;48.120;11.534;2023-05-07T03:45:18;3.00;;;2.80;;
7607;SDS011;3845;48.120;11.534;2023-05-07T03:47:44;3.60;;;2.90;;
7607;SDS011;3845;48.120;11.534;2023-05-07T03:50:09;3.17;;;2.60;;
7607;SDS011;3845;48.120;11.534;2023-05-07T03:52:35;3.43;;;3.03;;
7607;SDS011;3845;48.120;11.534;2023-05-07T03:55:00;3.97;;;3.03;;
7607;SDS011;3845;48.120;11.534;2023-05-07T03:57:26;4.03;;;3.43;;
7607;SDS011;3845;48.120;11.534;2023-05-07T03:59:51;3.97;;;3.13;;
7607;SDS011;3845;48.120;11.534;2023-05-07T04:02:17;4.10;;;2.83;;
7607;SDS011;3845;48.120;11.534;2023-05-07T04:04:42;3.73;;;3.10;;
7607;SDS011;3845;48.120;11.534;2023-05-07T04:07:07;3.80;;;2.70;;
7607;SDS011;3845;48.120;11.534;2023-05-07T04:09:32;2.77;;;2.50;;
7607;SDS011;3845;48.120;11.534;2023-05-07T04:11:58;3.33;;;2.90;;
7607;SDS011;3845;48.120;11.534;2023-05-07T04:14:23;4.33;;;2.70;;
7607;SDS011;3845;48.120;11.534;2023-05-07T04:16:48;3.20;;;2.90;;
7607;SDS011;3845;48.120;11.534;2023-05-07T04:19:13;4.30;;;3.50;;
7607;SDS011;3845;48.120;11.534;2023-05-07T04:21:39;4.00;;;3.47;;
7607;SDS011;3845;48.120;11.534;2023-05-07T04:24:05;3.77;;;3.33;;
7607;SDS011;3845;48.120;11.534;2023-05-07T04:26:30;3.80;;;3.50;;
7607;SDS011;3845;48.120;11.534;2023-05-07T04:28:56;3.40;;;3.10;;
7607;SDS011;3845;48.120;11.534;2023-05-07T04:31:24;3.47;;;3.17;;
7607;SDS011;3845;48.120;11.534;2023-05-07T04:33:49;3.70;;;3.17;;
7607;SDS011;3845;48.120;11.534;2023-05-07T04:36:15;3.67;;;2.87;;
7607;SDS011;3845;48.120;11.534;2023-05-07T04:38:41;4.00;;;3.07;;
7607;SDS011;3845;48.120;11.534;2023-05-07T04:41:06;3.20;;;2.90;;
7607;SDS011;3845;48.120;11.534;2023-05-07T04:43:32;3.33;;;2.80;;
7607;SDS011;3845;48.120;11.534;2023-05-07T04:45:57;3.20;;;2.90;;
7607;SDS011;3845;48.120;11.534;2023-05-07T04:48:22;2.93;;;2.73;;
7607;SDS011;3845;48.120;11.534;2023-05-07T04:50:48;3.20;;;2.80;;
7607;SDS011;3845;48.120;11.534;2023-05-07T04:53:14;3.37;;;3.07;;
7607;SDS011;3845;48.120;11.534;2023-05-07T04:55:39;5.17;;;3.10;;
7607;SDS011;3845;48.120;11.534;2023-05-07T04:58:04;3.33;;;2.87;;
7607;SDS011;3845;48.120;11.534;2023-05-07T05:00:31;3.33;;;3.03;;
7607;SDS011;3845;48.120;11.534;2023-05-07T05:02:56;3.07;;;2.77;;
7607;SDS011;3845;48.120;11.534;2023-05-07T05:05:21;5.97;;;2.93;;
7607;SDS011;3845;48.120;11.534;2023-05-07T05:07:47;3.77;;;3.00;;
7607;SDS011;3845;48.120;11.534;2023-05-07T05:10:12;3.33;;;2.73;;
7607;SDS011;3845;48.120;11.534;2023-05-07T05:12:37;3.40;;;3.00;;
7607;SDS011;3845;48.120;11.534;2023-05-07T05:15:03;3.30;;;3.00;;
7607;SDS011;3845;48.120;11.534;2023-05-07T05:17:29;3.67;;;2.80;;
7607;SDS011;3845;48.120;11.534;2023-05-07T05:19:54;3.20;;;2.90;;
7607;SDS011;3845;48.120;11.534;2023-05-07T05:22:20;2.90;;;2.60;;
7607;SDS011;3845;48.120;11.534;2023-05-07T05:24:45;3.77;;;3.20;;
7607;SDS011;3845;48.120;11.534;2023-05-07T05:27:10;4.17;;;2.70;;
7607;SDS011;3845;48.120;11.534;2023-05-07T05:29:36;3.40;;;2.97;;
7607;SDS011;3845;48.120;11.534;2023-05-07T05:32:01;3.00;;;2.70;;
7607;SDS011;3845;48.120;11.534;2023-05-07T05:34:26;3.40;;;3.10;;
7607;SDS011;3845;48.120;11.534;2023-05-07T05:36:52;3.07;;;2.77;;
7607;SDS011;3845;48.120;11.534;2023-05-07T05:39:17;3.20;;;2.40;;
7607;SDS011;3845;48.120;11.534;2023-05-07T05:41:43;3.03;;;2.57;;
7607;SDS011;3845;48.120;11.534;2023-05-07T05:44:08;3.60;;;2.63;;
7607;SDS011;3845;48.120;11.534;2023-05-07T05:46:33;2.87;;;2.50;;
7607;SDS011;3845;48.120;11.534;2023-05-07T05:48:59;2.60;;;2.40;;
7607;SDS011;3845;48.120;11.534;2023-05-07T05:51:25;3.80;;;2.60;;
7607;SDS011;3845;48.120;11.534;2023-05-07T05:53:51;2.70;;;2.50;;
7607;SDS011;3845;48.120;11.534;2023-05-07T05:56:16;2.47;;;2.27;;
7607;SDS011;3845;48.120;11.534;2023-05-07T05:58:41;3.37;;;2.20;;
7607;SDS011;3845;48.120;11.534;2023-05-07T06:01:07;2.50;;;2.30;;
7607;SDS011;3845;48.120;11.534;2023-05-07T06:03:32;2.33;;;2.10;;
7607;SDS011;3845;48.120;11.534;2023-05-07T06:05:58;2.43;;;2.00;;
7607;SDS011;3845;48.120;11.534;2023-05-07T06:08:24;2.90;;;2.23;;
7607;SDS011;3845;48.120;11.534;2023-05-07T06:10:50;2.30;;;2.10;;
7607;SDS011;3845;48.120;11.534;2023-05-07T06:13:15;2.07;;;1.83;;
7607;SDS011;3845;48.120;11.534;2023-05-07T06:15:40;2.20;;;2.00;;
7607;SDS011;3845;48.120;11.534;2023-05-07T06:18:06;2.90;;;2.37;;
7607;SDS011;3845;48.120;11.534;2023-05-07T06:20:31;3.23;;;2.30;;
7607;SDS011;3845;48.120;11.534;2023-05-07T06:22:56;2.70;;;2.50;;
7607;SDS011;3845;48.120;11.534;2023-05-07T06:25:21;2.50;;;2.30;;
7607;SDS011;3845;48.120;11.534;2023-05-07T06:27:47;2.47;;;2.20;;
7607;SDS011;3845;48.120;11.534;2023-05-07T06:30:12;3.73;;;2.03;;
7607;SDS011;3845;48.120;11.534;2023-05-07T06:32:37;2.57;;;2.03;;
7607;SDS011;3845;48.120;11.534;2023-05-07T06:35:02;2.47;;;2.10;;
7607;SDS011;3845;48.120;11.534;2023-05-07T06:37:28;2.00;;;1.90;;
7607;SDS011;3845;48.120;11.534;2023-05-07T06:39:53;2.50;;;1.90;;
7607;SDS011;3845;48.120;11.534;2023-05-07T06:42:19;2.15;;;1.70;;
7607;SDS011;3845;48.120;11.534;2023-05-07T06:44:44;3.17;;;2.58;;
7607;SDS011;3845;48.120;11.534;2023-05-07T06:47:09;2.40;;;2.20;;
7607;SDS011;3845;48.120;11.534;2023-05-07T06:49:35;2.95;;;2.30;;
7607;SDS011;3845;48.120;11.534;2023-05-07T06:52:00;2.97;;;2.13;;
7607;SDS011;3845;48.120;11.534;2023-05-07T06:54:25;3.10;;;2.30;;
7607;SDS011;3845;48.120;11.534;2023-05-07T06:56:50;3.42;;;3.00;;
7607;SDS011;3845;48.120;11.534;2023-05-07T06:59:16;3.45;;;3.03;;
7607;SDS011;3845;48.120;11.534;2023-05-07T07:01:41;2.92;;;2.60;;
7607;SDS011;3845;48.120;11.534;2023-05-07T07:04:06;4.30;;;2.70;;
7607;SDS011;3845;48.120;11.534;2023-05-07T07:06:32;3.55;;;3.00;;
7607;SDS011;3845;48.120;11.534;2023-05-07T07:08:57;3.38;;;3.08;;
7607;SDS011;3845;48.120;11.534;2023-05-07T07:11:23;3.53;;;2.53;;
7607;SDS011;3845;48.120;11.534;2023-05-07T07:13:48;3.27;;;2.40;;
7607;SDS011;3845;48.120;11.534;2023-05-07T07:16:14;2.50;;;2.30;;
7607;SDS011;3845;48.120;11.534;2023-05-07T07:18:39;2.63;;;2.10;;
7607;SDS011;3845;48.120;11.534;2023-05-07T07:21:05;2.60;;;2.10;;
7607;SDS011;3845;48.120;11.534;2023-05-07T07:23:30;2.77;;;2.40;;
7607;SDS011;3845;48.120;11.534;2023-05-07T07:25:55;3.13;;;2.70;;
7607;SDS011;3845;48.120;11.534;2023-05-07T07:28:21;4.23;;;2.90;;
7607;SDS011;3845;48.120;11.534;2023-05-07T07:30:46;2.97;;;2.67;;
7607;SDS011;3845;48.120;11.534;2023-05-07T07:33:12;2.73;;;2.53;;
7607;SDS011;3845;48.120;11.534;2023-05-07T07:35:37;3.13;;;2.50;;
7607;SDS011;3845;48.120;11.534;2023-05-07T07:38:02;3.63;;;2.47;;
7607;SDS011;3845;48.120;11.534;2023-05-07T07:40:27;3.13;;;2.70;;
7607;SDS011;3845;48.120;11.534;2023-05-07T07:42:53;2.50;;;2.27;;
7607;SDS011;3845;48.120;11.534;2023-05-07T07:45:18;3.10;;;2.80;;
7607;SDS011;3845;48.120;11.534;2023-05-07T07:47:44;3.90;;;2.50;;
7607;SDS011;3845;48.120;11.534;2023-05-07T07:50:09;2.90;;;2.60;;
7607;SDS011;3845;48.120;11.534;2023-05-07T07:52:35;2.93;;;2.50;;
7607;SDS011;3845;48.120;11.534;2023-05-07T07:55:00;3.37;;;2.97;;
7607;SDS011;3845;48.120;11.534;2023-05-07T07:57:26;6.43;;;3.27;;
7607;SDS011;3845;48.120;11.534;2023-05-07T07:59:51;3.77;;;3.10;;
7607;SDS011;3845;48.120;11.534;2023-05-07T08:02:16;3.60;;;3.30;;
7607;SDS011;3845;48.120;11.534;2023-05-07T08:04:42;2.80;;;2.53;;
7607;SDS011;3845;48.120;11.534;2023-05-07T08:07:08;2.77;;;2.30;;
7607;SDS011;3845;48.120;11.534;2023-05-07T08:09:34;2.80;;;2.33;;
7607;SDS011;3845;48.120;11.534;2023-05-07T08:12:00;4.03;;;2.50;;
7607;SDS011;3845;48.120;11.534;2023-05-07T08:14:26;3.07;;;2.37;;
7607;SDS011;3845;48.120;11.534;2023-05-07T08:16:53;2.50;;;2.30;;
7607;SDS011;3845;48.120;11.534;2023-05-07T08:19:18;3.10;;;2.80;;
7607;SDS011;3845;48.120;11.534;2023-05-07T08:21:44;2.77;;;2.40;;
7607;SDS011;3845;48.120;11.534;2023-05-07T08:24:12;3.10;;;2.80;;
7607;SDS011;3845;48.120;11.534;2023-05-07T08:26:37;3.97;;;2.53;;
7607;SDS011;3845;48.120;11.534;2023-05-07T08:29:04;3.73;;;3.13;;
7607;SDS011;3845;48.120;11.534;2023-05-07T08:31:29;3.43;;;2.90;;
7607;SDS011;3845;48.120;11.534;2023-05-07T08:33:55;3.33;;;2.90;;
7607;SDS011;3845;48.120;11.534;2023-05-07T08:36:20;4.00;;;3.60;;
7607;SDS011;3845;48.120;11.534;2023-05-07T08:38:46;3.53;;;2.80;;
7607;SDS011;3845;48.120;11.534;2023-05-07T08:41:11;4.30;;;2.80;;
7607;SDS011;3845;48.120;11.534;2023-05-07T08:43:36;3.87;;;2.83;;
7607;SDS011;3845;48.120;11.534;2023-05-07T08:46:03;2.73;;;2.23;;
7607;SDS011;3845;48.120;11.534;2023-05-07T08:48:29;3.17;;;2.47;;
7607;SDS011;3845;48.120;11.534;2023-05-07T08:50:57;4.87;;;2.60;;
7607;SDS011;3845;48.120;11.534;2023-05-07T08:53:23;3.47;;;2.90;;
7607;SDS011;3845;48.120;11.534;2023-05-07T08:55:48;3.30;;;2.70;;
7607;SDS011;3845;48.120;11.534;2023-05-07T08:58:14;3.60;;;2.93;;
7607;SDS011;3845;48.120;11.534;2023-05-07T09:00:39;2.40;;;2.20;;
7607;SDS011;3845;48.120;11.534;2023-05-07T09:03:05;3.00;;;2.67;;
7607;SDS011;3845;48.120;11.534;2023-05-07T09:05:30;3.63;;;2.30;;
7607;SDS011;3845;48.120;11.534;2023-05-07T09:07:58;2.60;;;2.30;;
7607;SDS011;3845;48.120;11.534;2023-05-07T09:10:25;3.03;;;2.53;;
7607;SDS011;3845;48.120;11.534;2023-05-07T09:12:50;3.27;;;2.93;;
7607;SDS011;3845;48.120;11.534;2023-05-07T09:15:16;3.20;;;2.90;;
7607;SDS011;3845;48.120;11.534;2023-05-07T09:17:42;2.93;;;2.63;;
7607;SDS011;3845;48.120;11.534;2023-05-07T09:20:08;3.40;;;3.00;;
7607;SDS011;3845;48.120;11.534;2023-05-07T09:22:34;3.30;;;2.63;;
7607;SDS011;3845;48.120;11.534;2023-05-07T09:25:01;2.73;;;2.50;;
7607;SDS011;3845;48.120;11.534;2023-05-07T09:27:26;3.83;;;2.70;;
7607;SDS011;3845;48.120;11.534;2023-05-07T09:29:51;2.63;;;2.40;;
7607;SDS011;3845;48.120;11.534;2023-05-07T09:32:17;2.40;;;2.20;;
7607;SDS011;3845;48.120;11.534;2023-05-07T09:34:42;2.70;;;2.13;;
7607;SDS011;3845;48.120;11.534;2023-05-07T09:37:08;5.33;;;2.70;;
7607;SDS011;3845;48.120;11.534;2023-05-07T09:39:39;2.47;;;2.17;;
7607;SDS011;3845;48.120;11.534;2023-05-07T09:42:05;2.93;;;2.40;;
7607;SDS011;3845;48.120;11.534;2023-05-07T09:44:31;3.23;;;2.10;;
7607;SDS011;3845;48.120;11.534;2023-05-07T09:46:57;2.10;;;1.90;;
7607;SDS011;3845;48.120;11.534;2023-05-07T09:49:25;2.50;;;2.30;;
7607;SDS011;3845;48.120;11.534;2023-05-07T09:51:54;6.40;;;2.57;;
7607;SDS011;3845;48.120;11.534;2023-05-07T09:54:20;2.40;;;2.20;;
7607;SDS011;3845;48.120;11.534;2023-05-07T09:56:46;3.23;;;2.30;;
7607;SDS011;3845;48.120;11.534;2023-05-07T09:59:13;3.03;;;2.30;;
7607;SDS011;3845;48.120;11.534;2023-05-07T10:01:40;3.83;;;2.33;;
7607;SDS011;3845;48.120;11.534;2023-05-07T10:04:07;3.17;;;2.60;;
7607;SDS011;3845;48.120;11.534;2023-05-07T10:06:33;2.73;;;2.37;;
7607;SDS011;3845;48.120;11.534;2023-05-07T10:08:59;2.97;;;2.30;;
7607;SDS011;3845;48.120;11.534;2023-05-07T10:11:25;2.63;;;2.43;;
7607;SDS011;3845;48.120;11.534;2023-05-07T10:13:51;3.67;;;2.20;;
7607;SDS011;3845;48.120;11.534;2023-05-07T10:16:17;2.93;;;2.60;;
7607;SDS011;3845;48.120;11.534;2023-05-07T10:18:43;3.27;;;2.50;;
7607;SDS011;3845;48.120;11.534;2023-05-07T10:21:16;2.63;;;2.27;;
7607;SDS011;3845;48.120;11.534;2023-05-07T10:23:45;3.90;;;2.20;;
7607;SDS011;3845;48.120;11.534;2023-05-07T10:26:11;2.13;;;1.93;;
7607;SDS011;3845;48.120;11.534;2023-05-07T10:28:38;2.30;;;2.10;;
7607;SDS011;3845;48.120;11.534;2023-05-07T10:33:51;2.87;;;2.17;;
7607;SDS011;3845;48.120;11.534;2023-05-07T10:36:18;3.40;;;2.40;;
7607;SDS011;3845;48.120;11.534;2023-05-07T10:38:43;2.83;;;2.10;;
7607;SDS011;3845;48.120;11.534;2023-05-07T10:41:09;2.93;;;2.50;;
7607;SDS011;3845;48.120;11.534;2023-05-07T10:43:41;2.90;;;2.60;;
7607;SDS011;3845;48.120;11.534;2023-05-07T10:46:11;4.00;;;2.50;;
7607;SDS011;3845;48.120;11.534;2023-05-07T10:51:28;3.27;;;2.50;;
7607;SDS011;3845;48.120;11.534;2023-05-07T10:56:42;2.27;;;2.07;;
7607;SDS011;3845;48.120;11.534;2023-05-07T11:04:15;3.73;;;2.30;;
7607;SDS011;3845;48.120;11.534;2023-05-07T11:06:42;2.17;;;1.97;;
7607;SDS011;3845;48.120;11.534;2023-05-07T11:09:53;3.17;;;2.60;;
7607;SDS011;3845;48.120;11.534;2023-05-07T11:15:09;2.30;;;2.10;;
7607;SDS011;3845;48.120;11.534;2023-05-07T11:17:51;2.60;;;2.10;;
7607;SDS011;3845;48.120;11.534;2023-05-07T11:20:18;3.40;;;2.40;;
7607;SDS011;3845;48.120;11.534;2023-05-07T11:22:43;2.70;;;2.33;;
7607;SDS011;3845;48.120;11.534;2023-05-07T11:25:09;2.80;;;2.47;;
7607;SDS011;3845;48.120;11.534;2023-05-07T11:27:34;2.30;;;2.10;;
7607;SDS011;3845;48.120;11.534;2023-05-07T11:30:00;2.20;;;2.00;;
7607;SDS011;3845;48.120;11.534;2023-05-07T11:32:30;4.27;;;2.90;;
7607;SDS011;3845;48.120;11.534;2023-05-07T11:34:57;2.67;;;2.40;;
7607;SDS011;3845;48.120;11.534;2023-05-07T11:37:23;2.50;;;2.30;;
7607;SDS011;3845;48.120;11.534;2023-05-07T11:39:50;3.63;;;2.40;;
7607;SDS011;3845;48.120;11.534;2023-05-07T11:44:54;2.80;;;2.40;;
7607;SDS011;3845;48.120;11.534;2023-05-07T11:47:19;3.00;;;2.80;;
7607;SDS011;3845;48.120;11.534;2023-05-07T11:49:48;5.07;;;2.90;;
7607;SDS011;3845;48.120;11.534;2023-05-07T11:52:16;3.67;;;2.70;;
7607;SDS011;3845;48.120;11.534;2023-05-07T11:54:48;2.60;;;2.40;;
7607;SDS011;3845;48.120;11.534;2023-05-07T11:57:16;5.37;;;2.80;;
7607;SDS011;3845;48.120;11.534;2023-05-07T11:59:42;3.47;;;2.40;;
7607;SDS011;3845;48.120;11.534;2023-05-07T12:02:09;2.93;;;2.50;;
7607;SDS011;3845;48.120;11.534;2023-05-07T12:04:35;3.97;;;2.40;;
7607;SDS011;3845;48.120;11.534;2023-05-07T12:07:00;3.43;;;2.77;;
7607;SDS011;3845;48.120;11.534;2023-05-07T12:09:26;3.10;;;2.80;;
7607;SDS011;3845;48.120;11.534;2023-05-07T12:11:51;3.40;;;3.10;;
7607;SDS011;3845;48.120;11.534;2023-05-07T12:14:17;4.23;;;3.10;;
7607;SDS011;3845;48.120;11.534;2023-05-07T12:16:42;3.43;;;2.60;;
7607;SDS011;3845;48.120;11.534;2023-05-07T12:19:08;2.93;;;2.63;;
7607;SDS011;3845;48.120;11.534;2023-05-07T12:21:37;2.90;;;2.60;;
7607;SDS011;3845;48.120;11.534;2023-05-07T12:24:03;4.07;;;2.77;;
7607;SDS011;3845;48.120;11.534;2023-05-07T12:26:28;3.20;;;2.90;;
7607;SDS011;3845;48.120;11.534;2023-05-07T12:28:54;3.80;;;2.70;;
7607;SDS011;3845;48.120;11.534;2023-05-07T12:31:19;3.70;;;2.50;;
7607;SDS011;3845;48.120;11.534;2023-05-07T12:33:45;5.30;;;2.50;;
7607;SDS011;3845;48.120;11.534;2023-05-07T12:36:12;4.97;;;3.27;;
7607;SDS011;3845;48.120;11.534;2023-05-07T12:38:38;3.40;;;3.07;;
7607;SDS011;3845;48.120;11.534;2023-05-07T12:41:05;3.87;;;2.60;;
7607;SDS011;3845;48.120;11.534;2023-05-07T12:43:32;3.00;;;2.70;;
7607;SDS011;3845;48.120;11.534;2023-05-07T12:45:59;2.97;;;2.50;;
7607;SDS011;3845;48.120;11.534;2023-05-07T12:48:25;3.67;;;2.20;;
7607;SDS011;3845;48.120;11.534;2023-05-07T12:50:54;2.73;;;2.30;;
7607;SDS011;3845;48.120;11.534;2023-05-07T12:53:24;2.77;;;2.57;;
7607;SDS011;3845;48.120;11.534;2023-05-07T12:55:52;3.90;;;2.73;;
7607;SDS011;3845;48.120;11.534;2023-05-07T13:00:50;3.70;;;2.77;;
7607;SDS011;3845;48.120;11.534;2023-05-07T13:03:23;3.07;;;2.77;;
7607;SDS011;3845;48.120;11.534;2023-05-07T13:05:50;3.57;;;2.20;;
7607;SDS011;3845;48.120;11.534;2023-05-07T13:08:26;2.87;;;2.40;;
7607;SDS011;3845;48.120;11.534;2023-05-07T13:10:52;3.00;;;2.67;;
7607;SDS011;3845;48.120;11.534;2023-05-07T13:13:18;3.87;;;2.60;;
7607;SDS011;3845;48.120;11.534;2023-05-07T13:15:45;2.40;;;2.20;;
7607;SDS011;3845;48.120;11.534;2023-05-07T13:18:10;2.90;;;2.57;;
7607;SDS011;3845;48.120;11.534;2023-05-07T13:20:36;3.47;;;2.60;;
7607;SDS011;3845;48.120;11.534;2023-05-07T13:23:01;3.17;;;2.87;;
7607;SDS011;3845;48.120;11.534;2023-05-07T13:25:29;3.57;;;2.73;;
7607;SDS011;3845;48.120;11.534;2023-05-07T13:27:54;3.10;;;2.40;;
7607;SDS011;3845;48.120;11.534;2023-05-07T13:30:21;2.47;;;1.90;;
7607;SDS011;3845;48.120;11.534;2023-05-07T13:32:46;3.30;;;2.20;;
7607;SDS011;3845;48.120;11.534;2023-05-07T13:35:12;2.17;;;1.97;;
7607;SDS011;3845;48.120;11.534;2023-05-07T13:37:38;2.20;;;2.00;;
7607;SDS011;3845;48.120;11.534;2023-05-07T13:40:03;3.43;;;2.57;;
7607;SDS011;3845;48.120;11.534;2023-05-07T13:42:29;2.10;;;1.90;;
7607;SDS011;3845;48.120;11.534;2023-05-07T13:44:55;2.83;;;2.50;;
7607;SDS011;3845;48.120;11.534;2023-05-07T13:47:21;4.03;;;2.20;;
7607;SDS011;3845;48.120;11.534;2023-05-07T13:49:47;2.10;;;1.90;;
7607;SDS011;3845;48.120;11.534;2023-05-07T13:52:14;2.70;;;2.23;;
7607;SDS011;3845;48.120;11.534;2023-05-07T13:54:40;2.00;;;1.70;;
7607;SDS011;3845;48.120;11.534;2023-05-07T13:57:05;3.67;;;2.17;;
7607;SDS011;3845;48.120;11.534;2023-05-07T13:59:30;1.90;;;1.73;;
7607;SDS011;3845;48.120;11.534;2023-05-07T14:01:55;3.97;;;2.00;;
7607;SDS011;3845;48.120;11.534;2023-05-07T14:04:21;3.33;;;2.10;;
7607;SDS011;3845;48.120;11.534;2023-05-07T14:06:46;2.67;;;2.10;;
7607;SDS011;3845;48.120;11.534;2023-05-07T14:09:11;2.63;;;2.10;;
7607;SDS011;3845;48.120;11.534;2023-05-07T14:11:38;2.63;;;2.10;;
7607;SDS011;3845;48.120;11.534;2023-05-07T14:14:03;2.83;;;2.00;;
7607;SDS011;3845;48.120;11.534;2023-05-07T14:16:29;2.80;;;2.10;;
7607;SDS011;3845;48.120;11.534;2023-05-07T14:18:54;2.00;;;1.80;;
7607;SDS011;3845;48.120;11.534;2023-05-07T14:21:19;3.47;;;2.03;;
7607;SDS011;3845;48.120;11.534;2023-05-07T14:23:44;2.70;;;2.40;;
7607;SDS011;3845;48.120;11.534;2023-05-07T14:26:10;4.00;;;2.10;;
7607;SDS011;3845;48.120;11.534;2023-05-07T14:28:35;2.40;;;2.20;;
7607;SDS011;3845;48.120;11.534;2023-05-07T14:31:00;3.83;;;2.20;;
7607;SDS011;3845;48.120;11.534;2023-05-07T14:33:26;4.40;;;2.53;;
7607;SDS011;3845;48.120;11.534;2023-05-07T14:35:51;3.00;;;2.17;;
7607;SDS011;3845;48.120;11.534;2023-05-07T14:38:16;4.83;;;2.20;;
7607;SDS011;3845;48.120;11.534;2023-05-07T14:40:41;3.30;;;2.20;;
7607;SDS011;3845;48.120;11.534;2023-05-07T14:43:07;4.53;;;2.23;;
7607;SDS011;3845;48.120;11.534;2023-05-07T14:45:32;3.53;;;2.60;;
7607;SDS011;3845;48.120;11.534;2023-05-07T14:47:57;3.07;;;2.30;;
7607;SDS011;3845;48.120;11.534;2023-05-07T14:50:23;2.50;;;2.10;;
7607;SDS011;3845;48.120;11.534;2023-05-07T14:52:48;3.67;;;2.33;;
7607;SDS011;3845;48.120;11.534;2023-05-07T14:55:13;3.57;;;2.43;;
7607;SDS011;3845;48.120;11.534;2023-05-07T14:57:39;10.27;;;2.80;;
7607;SDS011;3845;48.120;11.534;2023-05-07T15:00:05;2.93;;;2.50;;
7607;SDS011;3845;48.120;11.534;2023-05-07T15:02:31;3.77;;;2.90;;
7607;SDS011;3845;48.120;11.534;2023-05-07T15:04:57;3.40;;;2.90;;
7607;SDS011;3845;48.120;11.534;2023-05-07T15:07:24;4.77;;;2.77;;
7607;SDS011;3845;48.120;11.534;2023-05-07T15:09:49;2.60;;;2.40;;
7607;SDS011;3845;48.120;11.534;2023-05-07T15:12:15;2.90;;;2.60;;
7607;SDS011;3845;48.120;11.534;2023-05-07T15:14:40;2.83;;;2.33;;
7607;SDS011;3845;48.120;11.534;2023-05-07T15:17:06;3.03;;;2.30;;